Time;durP1;ratioP1;P1;durP2;ratioP2;P2;SDS_P1;SDS_P2;PMS_P1;PMS_P2;Temp;Humidity;BMP_temperature;BMP_pressure;BME280_temperature;BME280_humidity;BME280_pressure;Samples;Min_cycle;Max_cycle;Signal;HPM_P1;HPM_P2
2022/05/01 00:03:31;;;;;;;22.83;13.67;;;;;11.30;96630.00;;;;8330754;28;20239;-74
2022/05/01 00:07:35;;;;;;;25.05;14.93;;;;;11.30;96632.00;;;;8327144;28;20222;-73
2022/05/01 00:11:38;;;;;;;27.10;15.57;;;;;11.30;96633.00;;;;8341216;28;20623;-75
2022/05/01 00:15:43;;;;;;;24.63;15.03;;;;;11.30;96628.00;;;;8337278;28;20262;-74
2022/05/01 00:19:46;;;;;;;25.87;15.30;;;;;11.30;96628.00;;;;8320284;28;20248;-74
2022/05/01 00:23:54;;;;;;;29.52;15.23;;;;;11.20;96626.00;;;;8332395;28;20684;-75
2022/05/01 00:27:58;;;;;;;25.80;15.13;;;;;11.20;96626.00;;;;8329142;28;20327;-75
2022/05/01 00:32:04;;;;;;;29.08;14.93;;;;;11.20;96623.00;;;;8325573;28;20897;-75
2022/05/01 00:40:28;;;;;;;31.00;16.35;;;;;11.20;96627.00;;;;8334358;28;20307;-73
2022/05/01 00:44:31;;;;;;;28.35;15.73;;;;;11.20;96623.00;;;;8339286;28;20789;-72
2022/05/01 00:48:36;;;;;;;27.80;15.87;;;;;11.10;96619.00;;;;8326369;28;20321;-73
2022/05/01 00:52:39;;;;;;;33.57;16.83;;;;;11.20;96621.00;;;;8338492;28;20329;-72
2022/05/01 00:56:45;;;;;;;33.25;17.15;;;;;11.10;96623.00;;;;8327033;28;20319;-74
2022/05/01 01:00:48;;;;;;;30.83;15.68;;;;;11.10;96622.00;;;;8324650;28;20228;-71
2022/05/01 01:04:53;;;;;;;29.48;15.75;;;;;11.10;96620.00;;;;8338259;28;20311;-71
2022/05/01 01:08:56;;;;;;;31.33;16.90;;;;;11.10;96626.00;;;;8335111;28;20341;-74
2022/05/01 01:13:00;;;;;;;30.73;15.97;;;;;11.10;96624.00;;;;8341290;28;20315;-72
2022/05/01 01:17:04;;;;;;;27.93;15.43;;;;;11.10;96620.00;;;;8336382;28;20328;-72
2022/05/01 01:21:10;;;;;;;30.97;16.37;;;;;11.00;96622.00;;;;8335757;28;20320;-73
2022/05/01 01:25:14;;;;;;;32.63;15.53;;;;;10.90;96630.00;;;;8336441;28;21059;-72
2022/05/01 01:33:38;;;;;;;35.93;17.13;;;;;10.80;96623.00;;;;8340380;28;20224;-72
2022/05/01 01:37:45;;;;;;;35.17;17.93;;;;;10.80;96629.00;;;;8336474;28;20217;-73
2022/05/01 01:41:50;;;;;;;32.60;16.90;;;;;10.70;96619.00;;;;8338733;28;20235;-73
2022/05/01 01:45:53;;;;;;;36.70;16.73;;;;;10.70;96621.00;;;;8336665;28;20233;-73
2022/05/01 01:49:56;;;;;;;33.80;17.00;;;;;10.70;96619.00;;;;8328536;28;20575;-74
2022/05/01 01:54:01;;;;;;;31.85;16.75;;;;;10.70;96621.00;;;;8336300;28;20231;-73
2022/05/01 01:58:04;;;;;;;35.87;17.70;;;;;10.70;96622.00;;;;8333794;28;20224;-75
2022/05/01 02:02:08;;;;;;;39.03;17.83;;;;;10.70;96619.00;;;;8328499;28;20271;-73
2022/05/01 02:06:13;;;;;;;37.63;18.23;;;;;10.70;96615.00;;;;8339790;28;20315;-72
2022/05/01 02:10:18;;;;;;;36.67;18.33;;;;;10.60;96616.00;;;;8338388;28;20957;-75
2022/05/01 02:14:21;;;;;;;38.43;19.13;;;;;10.60;96623.00;;;;8332125;28;20231;-75
2022/05/01 02:18:25;;;;;;;39.03;18.57;;;;;10.60;96614.00;;;;8329641;28;20325;-74
2022/05/01 02:22:28;;;;;;;45.38;19.65;;;;;10.60;96623.00;;;;8332308;28;20857;-73
2022/05/01 02:26:35;;;;;;;42.03;20.27;;;;;10.60;96629.00;;;;8330900;28;20247;-73
2022/05/01 02:30:39;;;;;;;42.07;21.13;;;;;10.60;96629.00;;;;8321515;28;20308;-75
2022/05/01 02:34:42;;;;;;;42.92;19.55;;;;;10.60;96627.00;;;;8334425;28;20228;-73
2022/05/01 02:38:47;;;;;;;40.57;20.97;;;;;10.60;96628.00;;;;8327369;28;20225;-71
2022/05/01 02:42:51;;;;;;;43.27;21.10;;;;;10.50;96621.00;;;;8329365;28;20230;-71
2022/05/01 02:46:55;;;;;;;48.35;21.92;;;;;10.50;96625.00;;;;8333900;28;20235;-72
2022/05/01 02:50:58;;;;;;;44.77;21.13;;;;;10.40;96626.00;;;;8324211;28;20231;-72
2022/05/01 02:55:01;;;;;;;49.83;22.53;;;;;10.40;96628.00;;;;8336260;28;20239;-72
2022/05/01 02:59:09;;;;;;;48.60;20.40;;;;;10.40;96621.00;;;;8324879;28;20253;-71
2022/05/01 03:03:12;;;;;;;51.03;22.23;;;;;10.40;96628.00;;;;8415952;22;20587;-72
2022/05/01 03:07:17;;;;;;;54.23;21.50;;;;;10.30;96617.00;;;;8342367;28;20285;-74
2022/05/01 03:11:20;;;;;;;50.93;21.67;;;;;10.10;96627.00;;;;8341047;28;20704;-74
2022/05/01 03:15:25;;;;;;;52.65;22.50;;;;;10.10;96613.00;;;;8345589;28;20224;-69
2022/05/01 03:23:50;;;;;;;49.05;21.65;;;;;10.10;96619.00;;;;8350076;28;20232;-69
2022/05/01 03:27:54;;;;;;;54.97;22.27;;;;;10.10;96619.00;;;;8342353;28;20231;-72
2022/05/01 03:31:59;;;;;;;53.23;23.87;;;;;10.00;96608.00;;;;8344583;28;20300;-71
2022/05/01 03:36:07;;;;;;;61.57;27.20;;;;;9.90;96608.00;;;;8336283;28;20256;-73
2022/05/01 03:40:12;;;;;;;55.30;24.50;;;;;10.00;96607.00;;;;8345654;28;20221;-72
2022/05/01 03:44:16;;;;;;;51.40;25.25;;;;;10.00;96605.00;;;;8342786;28;20319;-70
2022/05/01 03:48:20;;;;;;;63.03;27.43;;;;;10.00;96611.00;;;;8343226;28;20236;-71
2022/05/01 03:52:23;;;;;;;67.87;26.90;;;;;10.00;96606.00;;;;8343131;28;21596;-73
2022/05/01 03:56:27;;;;;;;68.40;27.60;;;;;10.00;96612.00;;;;8340348;28;20630;-71
2022/05/01 04:00:31;;;;;;;66.43;28.63;;;;;10.00;96611.00;;;;8336507;28;20227;-72
2022/05/01 04:04:35;;;;;;;63.47;27.70;;;;;10.10;96611.00;;;;8339703;28;20232;-74
2022/05/01 04:08:39;;;;;;;61.43;27.27;;;;;10.10;96621.00;;;;8345552;28;20743;-71
2022/05/01 04:12:44;;;;;;;65.93;27.47;;;;;10.10;96620.00;;;;8340794;28;20299;-72
2022/05/01 04:16:50;;;;;;;69.33;28.67;;;;;10.10;96622.00;;;;8336102;28;20653;-70
2022/05/01 04:20:54;;;;;;;82.03;31.57;;;;;10.10;96620.00;;;;8343339;28;20259;-70
2022/05/01 04:24:58;;;;;;;72.60;29.70;;;;;10.10;96621.00;;;;8351000;28;20866;-72
2022/05/01 04:33:21;;;;;;;81.63;31.13;;;;;10.20;96615.00;;;;8341256;28;20299;-72
2022/05/01 04:37:26;;;;;;;82.23;31.70;;;;;10.30;96615.00;;;;8341309;28;20332;-69
2022/05/01 04:41:29;;;;;;;77.13;30.10;;;;;10.30;96606.00;;;;8352809;28;20745;-72
2022/05/01 04:45:33;;;;;;;77.83;31.00;;;;;10.40;96615.00;;;;8339998;28;20247;-72
2022/05/01 04:49:36;;;;;;;76.90;30.57;;;;;10.50;96621.00;;;;8339372;28;20241;-72
2022/05/01 04:53:41;;;;;;;76.33;30.97;;;;;10.50;96627.00;;;;8361974;28;20304;-72
2022/05/01 04:57:44;;;;;;;75.17;29.10;;;;;10.60;96621.00;;;;8338369;28;20618;-71
2022/05/01 05:01:47;;;;;;;75.80;30.35;;;;;10.70;96626.00;;;;8350218;28;20264;-72
2022/05/01 05:05:51;;;;;;;72.77;30.13;;;;;10.70;96625.00;;;;8352824;28;20236;-73
2022/05/01 05:09:55;;;;;;;73.10;30.02;;;;;10.70;96632.00;;;;8348737;28;20230;-73
2022/05/01 05:13:58;;;;;;;78.80;30.57;;;;;10.80;96627.00;;;;8352156;28;20220;-72
2022/05/01 05:18:03;;;;;;;74.83;29.57;;;;;10.80;96636.00;;;;8349361;28;20252;-72
2022/05/01 05:22:06;;;;;;;75.30;30.53;;;;;10.80;96640.00;;;;8335343;28;20221;-74
2022/05/01 05:26:11;;;;;;;72.13;29.73;;;;;10.80;96634.00;;;;8351009;28;20243;-74
2022/05/01 05:30:14;;;;;;;78.95;30.08;;;;;10.80;96638.00;;;;8349786;28;20656;-72
2022/05/01 05:34:18;;;;;;;74.20;30.52;;;;;10.90;96642.00;;;;8350212;28;20229;-72
2022/05/01 05:38:21;;;;;;;79.00;30.07;;;;;11.00;96650.00;;;;8347610;28;20255;-73
2022/05/01 05:42:26;;;;;;;78.93;30.00;;;;;11.00;96653.00;;;;8348361;28;20224;-73
2022/05/01 05:46:29;;;;;;;64.93;28.70;;;;;11.00;96647.00;;;;8348172;28;20239;-73
2022/05/01 05:50:33;;;;;;;71.87;28.93;;;;;10.90;96656.00;;;;8346579;28;20236;-73
2022/05/01 05:54:36;;;;;;;72.77;29.97;;;;;11.00;96654.00;;;;8347495;28;20612;-73
2022/05/01 05:58:41;;;;;;;74.68;30.50;;;;;11.10;96660.00;;;;8349074;28;20232;-72
2022/05/01 06:02:44;;;;;;;74.43;30.50;;;;;11.10;96659.00;;;;8346138;28;20645;-71
2022/05/01 06:06:47;;;;;;;68.43;29.60;;;;;11.10;96657.00;;;;8351911;28;20354;-71
2022/05/01 06:10:50;;;;;;;72.40;30.60;;;;;11.20;96661.00;;;;8350295;28;20244;-72
2022/05/01 06:14:55;;;;;;;66.93;28.67;;;;;11.30;96659.00;;;;8346247;28;20229;-71
2022/05/01 06:18:58;;;;;;;67.43;30.25;;;;;11.40;96656.00;;;;8350330;28;20233;-72
2022/05/01 06:23:02;;;;;;;69.33;29.20;;;;;11.50;96658.00;;;;8348369;28;20236;-70
2022/05/01 06:27:05;;;;;;;68.65;30.73;;;;;11.60;96657.00;;;;8344446;28;20241;-72
2022/05/01 06:31:10;;;;;;;72.18;30.48;;;;;11.70;96663.00;;;;8346796;28;20311;-70
2022/05/01 06:35:14;;;;;;;64.65;29.83;;;;;11.70;96658.00;;;;8340130;28;20232;-70
2022/05/01 06:39:17;;;;;;;62.30;29.52;;;;;11.80;96661.00;;;;8352324;28;20255;-72
2022/05/01 06:43:20;;;;;;;64.28;28.95;;;;;11.80;96665.00;;;;8346364;28;20232;-71
2022/05/01 06:47:25;;;;;;;57.78;29.67;;;;;11.80;96661.00;;;;8345848;28;20221;-71
2022/05/01 06:51:28;;;;;;;64.40;30.13;;;;;11.90;96672.00;;;;8347419;28;20236;-72
2022/05/01 06:55:31;;;;;;;62.63;30.02;;;;;12.00;96666.00;;;;8330880;28;20234;-72
2022/05/01 06:59:34;;;;;;;65.05;28.35;;;;;12.10;96664.00;;;;8348528;28;20225;-72
2022/05/01 07:03:40;;;;;;;63.53;30.77;;;;;12.10;96659.00;;;;8342634;28;20229;-72
2022/05/01 07:07:43;;;;;;;54.03;27.83;;;;;12.20;96658.00;;;;8349412;28;20309;-70
2022/05/01 07:11:46;;;;;;;56.58;28.45;;;;;12.30;96670.00;;;;8347169;28;20717;-69
2022/05/01 07:15:50;;;;;;;51.00;25.52;;;;;12.40;96662.00;;;;8339189;28;20244;-72
2022/05/01 07:19:54;;;;;;;49.97;26.92;;;;;12.40;96662.00;;;;8355580;28;20228;-70
2022/05/01 07:23:58;;;;;;;51.65;26.15;;;;;12.50;96650.00;;;;8346332;28;20773;-72
2022/05/01 07:28:01;;;;;;;48.63;25.65;;;;;12.70;96658.00;;;;8349883;28;20225;-72
2022/05/01 07:32:05;;;;;;;38.42;23.77;;;;;13.00;96657.00;;;;8336480;28;20236;-71
2022/05/01 07:36:11;;;;;;;39.70;24.98;;;;;13.40;96651.00;;;;8344207;28;20232;-73
2022/05/01 07:40:14;;;;;;;31.45;20.40;;;;;13.60;96660.00;;;;8351856;28;20231;-72
2022/05/01 07:44:17;;;;;;;28.52;18.30;;;;;13.40;96664.00;;;;8347010;28;20230;-72
2022/05/01 07:48:20;;;;;;;23.52;16.42;;;;;13.30;96681.00;;;;8341302;28;20972;-74
2022/05/01 07:52:25;;;;;;;22.20;15.80;;;;;13.30;96680.00;;;;8350548;28;20231;-73
2022/05/01 07:56:29;;;;;;;16.08;12.98;;;;;13.30;96685.00;;;;8355350;28;20252;-74
2022/05/01 08:00:33;;;;;;;20.40;13.32;;;;;13.40;96681.00;;;;8343679;28;20225;-73
2022/05/01 08:04:36;;;;;;;16.95;12.25;;;;;13.50;96676.00;;;;8346196;28;20318;-75
2022/05/01 08:08:40;;;;;;;20.05;12.65;;;;;13.70;96674.00;;;;8343649;28;20234;-73
2022/05/01 08:12:44;;;;;;;14.88;10.75;;;;;13.90;96674.00;;;;8342538;28;20226;-71
2022/05/01 08:16:47;;;;;;;17.85;11.57;;;;;14.10;96672.00;;;;8339006;28;20231;-72
2022/05/01 08:21:07;;;;;;;16.05;11.60;;;;;14.40;96666.00;;;;8346265;28;20314;-73
2022/05/01 08:25:13;;;;;;;15.32;11.07;;;;;14.60;96661.00;;;;8336742;28;20311;-74
2022/05/01 08:29:17;;;;;;;16.23;10.13;;;;;14.80;96668.00;;;;8335878;28;20993;-74
2022/05/01 08:33:24;;;;;;;12.90;8.70;;;;;14.80;96663.00;;;;8340352;28;20311;-74
2022/05/01 08:37:27;;;;;;;13.30;9.45;;;;;14.90;96667.00;;;;8342804;28;20227;-73
2022/05/01 08:41:33;;;;;;;11.02;8.93;;;;;15.10;96666.00;;;;8343721;28;20268;-73
2022/05/01 08:45:42;;;;;;;15.18;9.13;;;;;15.40;96668.00;;;;8340253;28;20235;-74
2022/05/01 08:49:46;;;;;;;11.88;9.00;;;;;15.40;96670.00;;;;8342579;28;20696;-75
2022/05/01 08:53:51;;;;;;;11.43;8.88;;;;;15.70;96669.00;;;;8345503;28;20254;-74
2022/05/01 08:57:57;;;;;;;11.98;9.07;;;;;16.10;96657.00;;;;8340182;28;20924;-74
2022/05/01 09:02:00;;;;;;;14.90;9.30;;;;;16.30;96663.00;;;;8343179;28;20224;-75
2022/05/01 09:06:05;;;;;;;10.60;8.57;;;;;16.40;96661.00;;;;8337188;28;20233;-73
2022/05/01 09:10:11;;;;;;;13.27;8.98;;;;;16.60;96664.00;;;;8337625;28;20228;-76
2022/05/01 09:14:15;;;;;;;12.50;8.90;;;;;17.10;96670.00;;;;8343177;28;20232;-74
2022/05/01 09:18:19;;;;;;;25.98;15.00;;;;;17.30;96677.00;;;;8342138;28;20624;-74
2022/05/01 09:22:23;;;;;;;18.45;11.88;;;;;17.50;96670.00;;;;8344504;28;20307;-74
2022/05/01 09:26:28;;;;;;;12.75;9.77;;;;;17.40;96671.00;;;;8348901;28;20247;-73
2022/05/01 09:30:34;;;;;;;11.20;9.75;;;;;17.50;96674.00;;;;8351138;28;20707;-70
2022/05/01 09:34:43;;;;;;;13.45;9.43;;;;;17.80;96686.00;;;;8338697;28;20324;-73
2022/05/01 09:39:02;;;;;;;15.70;10.68;;;;;17.80;96676.00;;;;8349801;28;20284;-74
2022/05/01 09:43:06;;;;;;;14.82;10.65;;;;;17.90;96664.00;;;;8353744;28;20581;-73
2022/05/01 09:47:11;;;;;;;12.95;9.38;;;;;18.00;96663.00;;;;8347651;28;20328;-74
2022/05/01 09:51:16;;;;;;;10.80;8.88;;;;;18.10;96672.00;;;;8350114;28;20255;-74
2022/05/01 09:55:19;;;;;;;11.57;9.05;;;;;18.20;96674.00;;;;8352625;28;20859;-74
2022/05/01 09:59:24;;;;;;;11.18;8.65;;;;;18.20;96675.00;;;;8350630;28;20247;-74
2022/05/01 10:03:31;;;;;;;12.98;9.73;;;;;18.20;96665.00;;;;8351176;28;20801;-74
2022/05/01 10:07:37;;;;;;;13.02;9.23;;;;;18.20;96663.00;;;;8351361;28;20235;-73
2022/05/01 10:11:42;;;;;;;13.43;8.93;;;;;18.20;96664.00;;;;8350578;28;20307;-74
2022/05/01 10:15:46;;;;;;;13.73;9.90;;;;;18.40;96666.00;;;;8343328;28;20217;-73
2022/05/01 10:19:51;;;;;;;12.35;9.35;;;;;18.50;96667.00;;;;8348262;28;20315;-74
2022/05/01 10:23:55;;;;;;;11.43;8.90;;;;;18.50;96664.00;;;;8352078;28;20224;-75
2022/05/01 10:28:06;;;;;;;14.82;9.30;;;;;18.40;96657.00;;;;8350542;28;20236;-74
2022/05/01 10:32:54;;;;;;;11.38;9.32;;;;;18.30;96654.00;;;;8347975;28;20315;-75
2022/05/01 10:37:27;;;;;;;11.77;9.35;;;;;18.20;96658.00;;;;8314141;28;20229;-75
2022/05/01 10:41:32;;;;;;;16.40;9.00;;;;;18.00;96649.00;;;;8347072;28;20232;-73
2022/05/01 10:45:44;;;;;;;11.93;9.10;;;;;17.90;96639.00;;;;8346123;28;20295;-74
2022/05/01 10:49:48;;;;;;;12.32;9.95;;;;;17.80;96642.00;;;;8342529;28;20235;-75
2022/05/01 10:54:29;;;;;;;15.10;10.30;;;;;17.70;96627.00;;;;8345580;28;20228;-76
2022/05/01 10:58:34;;;;;;;12.95;9.60;;;;;17.70;96634.00;;;;8346224;28;20585;-74
2022/05/01 11:02:42;;;;;;;13.90;9.45;;;;;17.70;96627.00;;;;8340893;28;20244;-74
2022/05/01 11:06:46;;;;;;;12.00;9.68;;;;;17.80;96629.00;;;;8347314;28;20315;-75
2022/05/01 11:10:51;;;;;;;13.32;9.77;;;;;18.00;96630.00;;;;8336957;28;20324;-74
2022/05/01 11:15:08;;;;;;;10.05;8.38;;;;;18.50;96633.00;;;;8343582;28;20356;-74
2022/05/01 11:19:12;;;;;;;12.35;8.82;;;;;19.00;96637.00;;;;8347638;28;20220;-74
2022/05/01 11:23:33;;;;;;;10.90;9.10;;;;;19.20;96632.00;;;;8349003;28;20311;-74
2022/05/01 11:27:48;;;;;;;9.45;7.85;;;;;19.40;96634.00;;;;8346416;28;20237;-74
2022/05/01 11:31:53;;;;;;;13.82;8.85;;;;;19.60;96639.00;;;;8341740;28;20311;-75
2022/05/01 11:36:04;;;;;;;10.75;8.38;;;;;19.40;96630.00;;;;8337757;28;20330;-75
2022/05/01 11:40:22;;;;;;;10.35;8.10;;;;;19.30;96630.00;;;;8331410;28;20645;-73
2022/05/01 11:44:25;;;;;;;12.35;9.10;;;;;19.20;96627.00;;;;8336742;28;20298;-73
2022/05/01 11:48:31;;;;;;;9.75;8.50;;;;;19.40;96634.00;;;;8341811;28;20332;-73
2022/05/01 11:52:38;;;;;;;14.68;9.48;;;;;19.50;96629.00;;;;8340440;28;20240;-75
2022/05/01 12:05:31;;;;;;;11.57;8.75;;;;;19.40;96625.00;;;;8336701;28;20228;-74
2022/05/01 12:09:37;;;;;;;10.48;9.07;;;;;19.60;96623.00;;;;8340359;28;20243;-76
2022/05/01 12:13:41;;;;;;;11.50;8.73;;;;;19.90;96624.00;;;;8345504;28;20235;-74
2022/05/01 12:17:44;;;;;;;12.77;9.20;;;;;20.10;96625.00;;;;8341065;28;20234;-75
2022/05/01 12:21:49;;;;;;;12.80;9.60;;;;;20.20;96619.00;;;;8317128;28;20235;-75
2022/05/01 12:25:54;;;;;;;13.52;8.90;;;;;20.30;96620.00;;;;8332996;28;20233;-75
2022/05/01 12:30:01;;;;;;;13.02;9.02;;;;;20.30;96619.00;;;;8336391;28;20650;-75
2022/05/01 12:34:04;;;;;;;10.75;8.75;;;;;20.40;96611.00;;;;8345888;28;20227;-75
2022/05/01 12:38:09;;;;;;;13.48;8.60;;;;;20.70;96621.00;;;;8336224;28;20217;-75
2022/05/01 12:46:34;;;;;;;12.63;8.15;;;;;21.00;96614.00;;;;8334490;28;20223;-75
2022/05/01 12:50:38;;;;;;;11.05;9.52;;;;;20.90;96612.00;;;;8333670;28;20263;-74
2022/05/01 12:55:07;;;;;;;12.75;8.63;;;;;20.80;96609.00;;;;8343387;28;20250;-74
2022/05/01 12:59:28;;;;;;;11.90;8.45;;;;;20.70;96611.00;;;;8337988;28;20216;-73
2022/05/01 13:03:36;;;;;;;11.18;8.52;;;;;20.80;96610.00;;;;8350410;28;20311;-76
2022/05/01 13:07:40;;;;;;;10.35;7.93;;;;;21.10;96607.00;;;;8352464;28;20226;-75
2022/05/01 13:16:12;;;;;;;13.73;8.68;;;;;21.40;96601.00;;;;8451587;27;20567;-75
2022/05/01 13:20:15;;;;;;;15.05;8.85;;;;;21.40;96600.00;;;;8416188;28;20687;-77
2022/05/01 13:24:21;;;;;;;11.18;9.25;;;;;21.60;96598.00;;;;8389821;27;20231;-76
2022/05/01 13:28:25;;;;;;;10.80;8.63;;;;;21.40;96600.00;;;;8386031;28;20349;-75
2022/05/01 13:32:30;;;;;;;11.32;9.15;;;;;21.50;96598.00;;;;8373669;28;20259;-80
2022/05/01 13:36:33;;;;;;;13.95;9.45;;;;;21.50;96590.00;;;;8375217;28;20328;-76
2022/05/01 13:44:57;;;;;;;12.63;9.20;;;;;21.90;96589.00;;;;8388797;28;20235;-80
2022/05/01 13:49:02;;;;;;;12.60;9.05;;;;;21.60;96579.00;;;;8385912;28;21013;-76
2022/05/01 13:53:09;;;;;;;13.13;9.68;;;;;21.60;96579.00;;;;8383923;28;20507;-79
2022/05/01 13:57:12;;;;;;;11.10;8.45;;;;;22.00;96574.00;;;;8379754;28;20230;-78
2022/05/01 14:01:15;;;;;;;11.73;9.18;;;;;22.20;96565.00;;;;8381579;28;20259;-78
2022/05/01 14:05:20;;;;;;;11.68;9.05;;;;;22.30;96570.00;;;;8383264;28;20318;-74
2022/05/01 14:09:24;;;;;;;11.75;9.73;;;;;22.40;96566.00;;;;8415679;27;20218;-74
2022/05/01 14:13:28;;;;;;;12.00;8.52;;;;;22.50;96565.00;;;;8408033;28;20322;-75
2022/05/01 14:17:31;;;;;;;18.10;10.95;;;;;22.40;96558.00;;;;8408844;28;20223;-75
2022/05/01 14:21:40;;;;;;;9.68;8.52;;;;;22.30;96556.00;;;;8397810;28;20207;-74
2022/05/01 14:26:03;;;;;;;11.30;8.57;;;;;22.70;96559.00;;;;8387355;28;20224;-74
2022/05/01 14:30:08;;;;;;;13.93;8.68;;;;;23.20;96544.00;;;;8380466;28;20310;-75
2022/05/01 14:34:24;;;;;;;10.85;8.27;;;;;24.00;96547.00;;;;8379473;28;20273;-74
2022/05/01 14:38:43;;;;;;;9.45;8.20;;;;;24.30;96539.00;;;;8395340;28;20587;-79
2022/05/01 14:42:49;;;;;;;12.07;8.38;;;;;24.20;96547.00;;;;8387132;28;20312;-81
2022/05/01 14:46:56;;;;;;;10.63;8.45;;;;;23.90;96535.00;;;;8385370;28;20228;-78
2022/05/01 14:51:01;;;;;;;11.02;7.93;;;;;23.30;96533.00;;;;8378537;28;20215;-82
2022/05/01 14:55:08;;;;;;;10.85;7.50;;;;;23.30;96525.00;;;;8394630;28;20798;-80
2022/05/01 15:08:09;;;;;;;10.93;7.90;;;;;23.00;96521.00;;;;8349163;28;21779;-78
2022/05/01 15:12:16;;;;;;;12.50;7.60;;;;;22.60;96522.00;;;;8374177;28;20239;-77
2022/05/01 15:16:28;;;;;;;11.15;7.38;;;;;22.70;96523.00;;;;8375146;28;20633;-80
2022/05/01 15:20:32;;;;;;;9.60;7.45;;;;;23.50;96527.00;;;;8342407;28;20232;-79
2022/05/01 15:24:45;;;;;;;8.93;7.13;;;;;24.10;96521.00;;;;8342708;28;20224;-79
2022/05/01 15:28:52;;;;;;;11.82;7.32;;;;;23.90;96518.00;;;;8343884;28;20220;-77
2022/05/01 15:37:38;;;;;;;10.25;7.75;;;;;24.70;96513.00;;;;8321351;28;20234;-78
2022/05/01 15:41:51;;;;;;;8.20;6.95;;;;;24.10;96520.00;;;;8359735;28;20225;-77
2022/05/01 15:45:56;;;;;;;9.35;7.88;;;;;23.30;96520.00;;;;8356026;28;20778;-77
2022/05/01 15:54:40;;;;;;;9.18;7.50;;;;;21.30;96516.00;;;;8344739;28;20330;-75
2022/05/01 15:58:44;;;;;;;7.75;6.35;;;;;20.90;96514.00;;;;8377023;28;20263;-75
2022/05/01 16:02:52;;;;;;;8.75;7.18;;;;;20.40;96513.00;;;;8387101;28;20255;-77
2022/05/01 16:07:02;;;;;;;12.70;8.05;;;;;20.20;96514.00;;;;8395285;28;20239;-77
2022/05/01 16:11:25;;;;;;;9.27;7.18;;;;;19.90;96511.00;;;;8375537;28;20844;-76
2022/05/01 16:15:36;;;;;;;8.43;7.47;;;;;19.60;96516.00;;;;8378391;28;20246;-79
2022/05/01 16:19:47;;;;;;;11.57;7.22;;;;;19.40;96509.00;;;;8392432;28;21077;-77
2022/05/01 16:23:57;;;;;;;13.23;8.48;;;;;19.20;96506.00;;;;8355586;28;20286;-74
2022/05/01 16:28:03;;;;;;;10.60;7.78;;;;;19.00;96505.00;;;;8345928;28;20307;-74
2022/05/01 16:32:12;;;;;;;10.55;8.30;;;;;18.80;96511.00;;;;8355653;28;20284;-73
2022/05/01 16:36:23;;;;;;;12.40;8.23;;;;;18.60;96514.00;;;;8372254;28;20238;-81
2022/05/01 16:40:29;;;;;;;12.65;8.10;;;;;18.40;96514.00;;;;8378469;28;20233;-81
2022/05/01 16:44:33;;;;;;;9.55;8.30;;;;;18.20;96508.00;;;;8343882;28;20957;-82
2022/05/01 16:48:39;;;;;;;11.70;8.48;;;;;18.00;96507.00;;;;8348637;28;20609;-79
2022/05/01 16:52:47;;;;;;;13.40;8.35;;;;;17.80;96502.00;;;;8380433;28;20220;-80
2022/05/01 16:56:51;;;;;;;13.07;8.93;;;;;17.80;96503.00;;;;8359884;28;20592;-80
2022/05/01 17:01:00;;;;;;;13.77;9.02;;;;;17.90;96503.00;;;;8378746;28;20219;-86
2022/05/01 17:05:09;;;;;;;10.75;8.75;;;;;17.90;96505.00;;;;8373420;28;20236;-81
2022/05/01 17:09:21;;;;;;;14.88;9.20;;;;;18.00;96500.00;;;;8378268;28;21033;-80
2022/05/01 17:13:48;;;;;;;12.45;10.07;;;;;17.90;96502.00;;;;8376129;28;20250;-82
2022/05/01 17:18:10;;;;;;;14.45;9.85;;;;;17.90;96497.00;;;;8383075;28;20234;-80
2022/05/01 17:22:20;;;;;;;15.15;10.20;;;;;17.80;96490.00;;;;8377041;28;20298;-78
2022/05/01 17:26:33;;;;;;;13.07;8.90;;;;;17.70;96496.00;;;;8382253;28;20230;-79
2022/05/01 17:30:45;;;;;;;11.98;9.13;;;;;17.60;96498.00;;;;8382623;28;20231;-79
2022/05/01 17:35:06;;;;;;;14.43;9.98;;;;;17.60;96502.00;;;;8375387;28;20979;-81
2022/05/01 17:39:10;;;;;;;16.92;10.82;;;;;17.50;96506.00;;;;8372367;28;20244;-78
2022/05/01 17:43:18;;;;;;;12.57;10.52;;;;;17.40;96500.00;;;;8375395;28;20343;-78
2022/05/01 17:47:24;;;;;;;17.00;10.48;;;;;17.30;96504.00;;;;8378982;28;20235;-77
2022/05/01 17:51:29;;;;;;;13.45;10.45;;;;;17.30;96508.00;;;;8374464;28;20598;-75
2022/05/01 17:55:33;;;;;;;17.98;10.48;;;;;17.20;96503.00;;;;8372102;28;20681;-76
2022/05/01 17:59:38;;;;;;;12.57;10.23;;;;;17.00;96509.00;;;;8377707;28;20224;-77
2022/05/01 18:13:03;;;;;;;16.20;10.55;;;;;16.20;96509.00;;;;8359422;28;20327;-75
2022/05/01 18:17:15;;;;;;;14.50;10.52;;;;;16.00;96517.00;;;;8356237;28;20259;-79
2022/05/01 18:21:26;;;;;;;16.58;11.65;;;;;15.90;96518.00;;;;8347759;28;20251;-79
2022/05/01 18:25:38;;;;;;;14.32;10.10;;;;;15.60;96514.00;;;;8347056;28;20248;-80
2022/05/01 18:30:14;;;;;;;14.35;10.95;;;;;15.30;96520.00;;;;8372316;28;20227;-77
2022/05/01 18:34:30;;;;;;;15.13;11.18;;;;;15.10;96518.00;;;;8350124;28;21139;-79
2022/05/01 18:38:36;;;;;;;17.75;10.88;;;;;14.80;96524.00;;;;8341427;28;20910;-78
2022/05/01 18:42:40;;;;;;;13.48;10.82;;;;;14.60;96528.00;;;;8345912;28;20240;-79
2022/05/01 18:46:44;;;;;;;14.15;11.00;;;;;14.30;96524.00;;;;8345543;28;20235;-81
2022/05/01 18:50:52;;;;;;;14.55;10.45;;;;;14.10;96526.00;;;;8356339;28;20235;-76
2022/05/01 18:54:59;;;;;;;19.38;10.98;;;;;13.90;96530.00;;;;8362666;28;20234;-78
2022/05/01 18:59:05;;;;;;;15.15;11.15;;;;;13.80;96528.00;;;;8347515;28;20596;-76
2022/05/01 19:03:09;;;;;;;16.38;11.10;;;;;13.70;96527.00;;;;8343333;28;21144;-77
2022/05/01 19:07:20;;;;;;;17.08;11.73;;;;;13.60;96531.00;;;;8348567;28;20224;-76
2022/05/01 19:11:51;;;;;;;17.05;12.43;;;;;13.40;96524.00;;;;8342028;28;20315;-75
2022/05/01 19:16:07;;;;;;;16.08;11.27;;;;;13.30;96539.00;;;;8352029;28;20246;-75
2022/05/01 19:20:23;;;;;;;26.63;15.15;;;;;13.20;96534.00;;;;8346289;28;20236;-78
2022/05/01 19:29:17;;;;;;;20.13;13.55;;;;;12.90;96540.00;;;;8370742;28;20694;-77
2022/05/01 19:33:35;;;;;;;18.40;12.95;;;;;12.90;96541.00;;;;8386347;28;20654;-78
2022/05/01 19:37:43;;;;;;;23.08;14.32;;;;;12.90;96545.00;;;;8383603;28;20242;-76
2022/05/01 19:41:58;;;;;;;19.67;14.50;;;;;12.90;96542.00;;;;8386374;28;20333;-75
2022/05/01 19:46:07;;;;;;;20.80;13.90;;;;;12.90;96549.00;;;;8382066;28;25190;-76
2022/05/01 19:54:34;;;;;;;19.83;13.20;;;;;13.00;96545.00;;;;8381307;28;20228;-75
2022/05/01 19:58:40;;;;;;;22.27;13.77;;;;;13.10;96544.00;;;;8393183;28;20229;-75
2022/05/01 20:02:43;;;;;;;22.02;14.65;;;;;13.10;96537.00;;;;8392571;28;20435;-76
2022/05/01 20:06:50;;;;;;;19.75;13.57;;;;;13.00;96531.00;;;;8387911;28;20296;-76
2022/05/01 20:10:56;;;;;;;17.92;13.27;;;;;13.10;96533.00;;;;8388825;28;20256;-75
2022/05/01 20:15:01;;;;;;;21.63;13.82;;;;;12.90;96536.00;;;;8379635;28;20239;-75
2022/05/01 20:19:08;;;;;;;22.38;14.20;;;;;12.80;96539.00;;;;8381060;28;20222;-75
2022/05/01 20:23:20;;;;;;;19.92;14.13;;;;;12.70;96539.00;;;;8381511;28;20262;-75
2022/05/01 20:27:36;;;;;;;19.67;13.68;;;;;12.50;96530.00;;;;8381521;28;20579;-75
2022/05/01 20:31:44;;;;;;;20.75;14.10;;;;;12.30;96532.00;;;;8386251;28;20327;-77
2022/05/01 20:35:58;;;;;;;22.83;14.73;;;;;12.20;96526.00;;;;8375330;28;20229;-74
2022/05/01 20:40:06;;;;;;;23.27;15.48;;;;;12.20;96525.00;;;;8373577;28;20220;-76
2022/05/01 20:44:24;;;;;;;24.58;15.40;;;;;12.10;96525.00;;;;8378410;28;20249;-76
2022/05/01 20:48:43;;;;;;;22.30;15.07;;;;;12.00;96524.00;;;;8383539;28;20325;-77
2022/05/01 20:53:03;;;;;;;28.42;16.80;;;;;11.90;96519.00;;;;8382095;28;20298;-77
2022/05/01 20:57:09;;;;;;;24.00;16.53;;;;;11.80;96518.00;;;;8383780;28;20322;-78
2022/05/01 21:01:14;;;;;;;24.10;16.60;;;;;11.90;96516.00;;;;8386277;28;20223;-77
2022/05/01 21:05:20;;;;;;;27.10;15.95;;;;;11.90;96526.00;;;;8388493;28;20226;-75
2022/05/01 21:09:24;;;;;;;25.15;16.23;;;;;12.00;96522.00;;;;8382892;28;20713;-74
2022/05/01 21:13:31;;;;;;;22.38;15.60;;;;;12.00;96514.00;;;;8388269;28;20326;-76
2022/05/01 21:17:34;;;;;;;22.45;15.85;;;;;12.00;96506.00;;;;8389861;28;20235;-77
2022/05/01 21:21:45;;;;;;;25.70;17.58;;;;;11.90;96509.00;;;;8386670;28;20281;-75
2022/05/01 21:25:49;;;;;;;25.23;17.70;;;;;11.90;96502.00;;;;8392437;28;20242;-75
2022/05/01 21:34:12;;;;;;;25.20;17.33;;;;;11.90;96499.00;;;;8378577;28;20653;-75